Langley, South Carolina
Current Conditions -  °F | °C
As of 11:53 AM on Thursday 30 Oct 2014 (Local Time) from KDNL Reporting Station
Clear Clear  
Wind Chill: 68°   Ceiling: Unl
Heat Index: 68°   Visibility: 10mi
Dew Point: 43°   Wind: 13mph
Humidity: 40%   Direction: 60°ENE
Pressure: 30.05"   Gusts: 18mph
Location:  33.52°N, 81.84°W
Report Text: KDNL 301553Z AUTO 06011G16KT 10SM CLR 20/06 A3005 RMK AO2 SLP172 T02000061
Loading
Personal Weather Stations






























Interactive Weather Map
Tropical Storm Tracking
New forecast layout! Learn more

10-Day Weather Forecast

Advertisements
Track Severe Weather on mobile